sensor_id;sensor_type;location;lat;lon;timestamp;pressure;altitude;pressure_sealevel;temperature;humidity
77431;BME280;66498;48.564;19.272;2023-05-10T00:00:52;97856.50;;;6.27;71.63
77431;BME280;66498;48.564;19.272;2023-05-10T00:03:18;97843.88;;;6.30;71.99
77431;BME280;66498;48.564;19.272;2023-05-10T00:05:44;97840.53;;;6.15;73.12
77431;BME280;66498;48.564;19.272;2023-05-10T00:08:09;97844.63;;;6.03;73.80
77431;BME280;66498;48.564;19.272;2023-05-10T00:10:35;97839.69;;;5.93;73.71
77431;BME280;66498;48.564;19.272;2023-05-10T00:13:01;97834.25;;;6.09;73.58
77431;BME280;66498;48.564;19.272;2023-05-10T00:15:26;97836.28;;;5.92;73.68
77431;BME280;66498;48.564;19.272;2023-05-10T00:17:52;97832.22;;;6.05;73.25
77431;BME280;66498;48.564;19.272;2023-05-10T00:20:17;97833.88;;;5.76;74.66
77431;BME280;66498;48.564;19.272;2023-05-10T00:22:43;97826.84;;;5.77;74.87
77431;BME280;66498;48.564;19.272;2023-05-10T00:25:09;97824.16;;;5.85;74.61
77431;BME280;66498;48.564;19.272;2023-05-10T00:27:35;97821.56;;;5.85;74.69
77431;BME280;66498;48.564;19.272;2023-05-10T00:30:01;97825.50;;;5.81;74.46
77431;BME280;66498;48.564;19.272;2023-05-10T00:32:27;97818.63;;;6.09;73.03
77431;BME280;66498;48.564;19.272;2023-05-10T00:34:53;97817.47;;;5.97;73.23
77431;BME280;66498;48.564;19.272;2023-05-10T00:37:19;97812.72;;;5.86;73.82
77431;BME280;66498;48.564;19.272;2023-05-10T00:39:44;97813.28;;;5.81;74.10
77431;BME280;66498;48.564;19.272;2023-05-10T00:42:10;97816.63;;;5.60;75.30
77431;BME280;66498;48.564;19.272;2023-05-10T00:44:35;97810.91;;;5.65;75.45
77431;BME280;66498;48.564;19.272;2023-05-10T00:47:01;97814.06;;;5.45;75.74
77431;BME280;66498;48.564;19.272;2023-05-10T00:49:26;97807.25;;;5.30;76.30
77431;BME280;66498;48.564;19.272;2023-05-10T00:51:52;97809.50;;;5.33;76.07
77431;BME280;66498;48.564;19.272;2023-05-10T00:54:18;97798.91;;;5.34;75.96
77431;BME280;66498;48.564;19.272;2023-05-10T00:56:43;97806.84;;;5.62;74.65
77431;BME280;66498;48.564;19.272;2023-05-10T00:59:15;97797.97;;;5.72;74.68
77431;BME280;66498;48.564;19.272;2023-05-10T01:01:42;97793.28;;;5.67;74.53
77431;BME280;66498;48.564;19.272;2023-05-10T01:04:08;97789.63;;;5.46;76.02
77431;BME280;66498;48.564;19.272;2023-05-10T01:06:36;97778.41;;;5.46;76.37
77431;BME280;66498;48.564;19.272;2023-05-10T01:09:02;97782.09;;;5.52;75.51
77431;BME280;66498;48.564;19.272;2023-05-10T01:11:27;97778.97;;;5.41;75.99
77431;BME280;66498;48.564;19.272;2023-05-10T01:13:56;97777.91;;;5.36;75.86
77431;BME280;66498;48.564;19.272;2023-05-10T01:16:23;97775.78;;;5.25;76.02
77431;BME280;66498;48.564;19.272;2023-05-10T01:18:51;97770.97;;;5.43;75.93
77431;BME280;66498;48.564;19.272;2023-05-10T01:21:42;97766.56;;;5.58;75.11
77431;BME280;66498;48.564;19.272;2023-05-10T01:32:19;97777.09;;;5.06;77.09
77431;BME280;66498;48.564;19.272;2023-05-10T01:34:54;97761.41;;;4.99;77.30
77431;BME280;66498;48.564;19.272;2023-05-10T01:37:42;97754.97;;;5.10;76.10
77431;BME280;66498;48.564;19.272;2023-05-10T01:40:17;97758.00;;;4.98;77.28
77431;BME280;66498;48.564;19.272;2023-05-10T01:42:51;97763.75;;;4.79;77.33
77431;BME280;66498;48.564;19.272;2023-05-10T01:48:10;97760.22;;;4.42;78.07
77431;BME280;66498;48.564;19.272;2023-05-10T01:50:43;97768.72;;;4.36;78.63
77431;BME280;66498;48.564;19.272;2023-05-10T01:53:10;97768.50;;;4.23;79.36
77431;BME280;66498;48.564;19.272;2023-05-10T01:55:43;97767.59;;;4.16;80.12
77431;BME280;66498;48.564;19.272;2023-05-10T01:58:17;97770.72;;;4.11;79.75
77431;BME280;66498;48.564;19.272;2023-05-10T02:00:44;97763.66;;;4.35;78.54
77431;BME280;66498;48.564;19.272;2023-05-10T02:03:12;97767.34;;;4.25;78.46
77431;BME280;66498;48.564;19.272;2023-05-10T02:05:39;97765.13;;;4.37;78.48
77431;BME280;66498;48.564;19.272;2023-05-10T02:08:07;97770.88;;;4.47;77.51
77431;BME280;66498;48.564;19.272;2023-05-10T02:10:35;97766.75;;;4.38;77.95
77431;BME280;66498;48.564;19.272;2023-05-10T02:13:02;97764.41;;;4.43;77.98
77431;BME280;66498;48.564;19.272;2023-05-10T02:15:28;97762.06;;;4.34;77.94
77431;BME280;66498;48.564;19.272;2023-05-10T02:17:58;97763.78;;;4.41;77.90
77431;BME280;66498;48.564;19.272;2023-05-10T02:20:26;97758.56;;;4.26;78.05
77431;BME280;66498;48.564;19.272;2023-05-10T02:22:56;97765.88;;;4.08;79.47
77431;BME280;66498;48.564;19.272;2023-05-10T02:25:23;97763.84;;;4.18;79.53
77431;BME280;66498;48.564;19.272;2023-05-10T02:27:51;97756.75;;;4.27;79.78
77431;BME280;66498;48.564;19.272;2023-05-10T02:30:19;97760.00;;;4.29;78.76
77431;BME280;66498;48.564;19.272;2023-05-10T02:32:46;97764.84;;;3.94;80.09
77431;BME280;66498;48.564;19.272;2023-05-10T02:35:14;97757.50;;;3.98;80.36
77431;BME280;66498;48.564;19.272;2023-05-10T02:37:41;97750.63;;;4.05;79.65
77431;BME280;66498;48.564;19.272;2023-05-10T02:40:08;97758.06;;;4.08;79.68
77431;BME280;66498;48.564;19.272;2023-05-10T02:42:37;97750.97;;;4.02;79.97
77431;BME280;66498;48.564;19.272;2023-05-10T02:45:15;97763.03;;;3.95;80.35
77431;BME280;66498;48.564;19.272;2023-05-10T02:47:42;97768.13;;;4.11;79.50
77431;BME280;66498;48.564;19.272;2023-05-10T02:50:09;97778.31;;;4.13;79.31
77431;BME280;66498;48.564;19.272;2023-05-10T02:53:01;97775.59;;;4.06;79.87
77431;BME280;66498;48.564;19.272;2023-05-10T02:55:33;97765.91;;;4.00;79.75
77431;BME280;66498;48.564;19.272;2023-05-10T02:58:02;97773.38;;;3.49;82.14
77431;BME280;66498;48.564;19.272;2023-05-10T03:00:28;97780.78;;;3.83;81.28
77431;BME280;66498;48.564;19.272;2023-05-10T03:02:53;97777.81;;;3.94;80.39
77431;BME280;66498;48.564;19.272;2023-05-10T03:05:20;97777.13;;;3.77;81.56
77431;BME280;66498;48.564;19.272;2023-05-10T03:07:46;97785.66;;;3.86;81.52
77431;BME280;66498;48.564;19.272;2023-05-10T03:10:12;97781.69;;;3.98;80.68
77431;BME280;66498;48.564;19.272;2023-05-10T03:13:01;97776.28;;;4.00;80.88
77431;BME280;66498;48.564;19.272;2023-05-10T03:15:42;97785.66;;;4.09;80.92
77431;BME280;66498;48.564;19.272;2023-05-10T03:18:16;97784.84;;;4.32;79.72
77431;BME280;66498;48.564;19.272;2023-05-10T03:20:47;97785.84;;;4.08;80.15
77431;BME280;66498;48.564;19.272;2023-05-10T03:23:25;97773.47;;;4.47;79.13
77431;BME280;66498;48.564;19.272;2023-05-10T03:25:52;97769.47;;;4.60;78.90
77431;BME280;66498;48.564;19.272;2023-05-10T03:28:18;97785.25;;;4.58;78.97
77431;BME280;66498;48.564;19.272;2023-05-10T03:30:45;97783.28;;;4.60;78.88
77431;BME280;66498;48.564;19.272;2023-05-10T03:33:11;97778.44;;;4.72;78.12
77431;BME280;66498;48.564;19.272;2023-05-10T03:35:38;97785.97;;;4.52;78.38
77431;BME280;66498;48.564;19.272;2023-05-10T03:38:04;97795.06;;;4.10;79.79
77431;BME280;66498;48.564;19.272;2023-05-10T03:40:30;97792.06;;;4.21;79.65
77431;BME280;66498;48.564;19.272;2023-05-10T03:42:57;97789.59;;;4.28;80.13
77431;BME280;66498;48.564;19.272;2023-05-10T03:45:23;97790.31;;;4.37;80.28
77431;BME280;66498;48.564;19.272;2023-05-10T03:47:48;97800.69;;;4.60;79.10
77431;BME280;66498;48.564;19.272;2023-05-10T03:50:14;97786.00;;;4.96;77.92
77431;BME280;66498;48.564;19.272;2023-05-10T03:52:39;97800.09;;;4.87;79.86
77431;BME280;66498;48.564;19.272;2023-05-10T03:55:06;97792.38;;;4.79;81.16
77431;BME280;66498;48.564;19.272;2023-05-10T03:57:31;97783.66;;;5.02;78.97
77431;BME280;66498;48.564;19.272;2023-05-10T03:59:57;97783.56;;;5.25;79.54
77431;BME280;66498;48.564;19.272;2023-05-10T04:02:22;97782.25;;;5.14;79.86
77431;BME280;66498;48.564;19.272;2023-05-10T04:04:48;97777.06;;;5.50;77.37
77431;BME280;66498;48.564;19.272;2023-05-10T04:07:15;97784.88;;;5.86;76.14
77431;BME280;66498;48.564;19.272;2023-05-10T04:09:40;97783.81;;;6.17;75.00
77431;BME280;66498;48.564;19.272;2023-05-10T04:12:06;97787.53;;;6.29;74.34
77431;BME280;66498;48.564;19.272;2023-05-10T04:14:32;97777.00;;;6.44;73.85
77431;BME280;66498;48.564;19.272;2023-05-10T04:16:57;97780.91;;;7.18;71.29
77431;BME280;66498;48.564;19.272;2023-05-10T04:19:23;97783.13;;;7.21;71.09
77431;BME280;66498;48.564;19.272;2023-05-10T04:21:48;97782.34;;;7.20;72.11
77431;BME280;66498;48.564;19.272;2023-05-10T04:24:14;97775.19;;;7.42;72.23
77431;BME280;66498;48.564;19.272;2023-05-10T04:26:40;97777.22;;;7.53;72.04
77431;BME280;66498;48.564;19.272;2023-05-10T04:29:05;97777.88;;;7.62;72.37
77431;BME280;66498;48.564;19.272;2023-05-10T04:31:31;97777.97;;;7.95;70.83
77431;BME280;66498;48.564;19.272;2023-05-10T04:33:56;97774.56;;;8.21;72.09
77431;BME280;66498;48.564;19.272;2023-05-10T04:36:23;97772.22;;;8.53;70.63
77431;BME280;66498;48.564;19.272;2023-05-10T04:38:48;97774.19;;;8.84;66.34
77431;BME280;66498;48.564;19.272;2023-05-10T04:41:14;97767.28;;;8.96;64.86
77431;BME280;66498;48.564;19.272;2023-05-10T04:43:41;97768.50;;;9.14;64.40
77431;BME280;66498;48.564;19.272;2023-05-10T04:46:07;97772.72;;;9.15;65.88
77431;BME280;66498;48.564;19.272;2023-05-10T04:48:33;97771.13;;;9.14;64.91
77431;BME280;66498;48.564;19.272;2023-05-10T04:50:59;97771.88;;;9.21;66.80
77431;BME280;66498;48.564;19.272;2023-05-10T04:53:24;97773.72;;;9.20;63.14
77431;BME280;66498;48.564;19.272;2023-05-10T04:55:50;97775.09;;;9.23;64.30
77431;BME280;66498;48.564;19.272;2023-05-10T04:58:15;97773.03;;;9.38;64.41
77431;BME280;66498;48.564;19.272;2023-05-10T05:00:41;97773.34;;;9.62;64.08
77431;BME280;66498;48.564;19.272;2023-05-10T05:03:07;97774.56;;;9.59;62.00
77431;BME280;66498;48.564;19.272;2023-05-10T05:05:33;97776.00;;;9.55;61.56
77431;BME280;66498;48.564;19.272;2023-05-10T05:07:58;97782.09;;;9.36;63.23
77431;BME280;66498;48.564;19.272;2023-05-10T05:10:24;97787.78;;;9.19;63.71
77431;BME280;66498;48.564;19.272;2023-05-10T05:12:49;97787.41;;;9.16;63.22
77431;BME280;66498;48.564;19.272;2023-05-10T05:15:15;97789.53;;;9.45;62.90
77431;BME280;66498;48.564;19.272;2023-05-10T05:17:42;97785.84;;;9.60;61.00
77431;BME280;66498;48.564;19.272;2023-05-10T05:20:08;97779.16;;;9.64;61.60
77431;BME280;66498;48.564;19.272;2023-05-10T05:22:35;97782.22;;;9.54;62.14
77431;BME280;66498;48.564;19.272;2023-05-10T05:25:00;97782.22;;;9.54;64.04
77431;BME280;66498;48.564;19.272;2023-05-10T05:27:27;97782.88;;;9.43;61.76
77431;BME280;66498;48.564;19.272;2023-05-10T05:29:54;97782.69;;;9.44;64.73
77431;BME280;66498;48.564;19.272;2023-05-10T05:32:19;97782.88;;;9.43;62.08
77431;BME280;66498;48.564;19.272;2023-05-10T05:34:45;97788.88;;;9.57;62.74
77431;BME280;66498;48.564;19.272;2023-05-10T05:37:15;97795.53;;;9.59;61.15
77431;BME280;66498;48.564;19.272;2023-05-10T05:39:41;97784.72;;;9.81;62.99
77431;BME280;66498;48.564;19.272;2023-05-10T05:42:06;97789.88;;;9.62;61.44
77431;BME280;66498;48.564;19.272;2023-05-10T05:44:32;97798.81;;;9.86;62.09
77431;BME280;66498;48.564;19.272;2023-05-10T05:46:57;97795.00;;;9.89;62.82
77431;BME280;66498;48.564;19.272;2023-05-10T05:49:23;97798.63;;;9.81;61.23
77431;BME280;66498;48.564;19.272;2023-05-10T05:51:48;97803.47;;;9.84;59.72
77431;BME280;66498;48.564;19.272;2023-05-10T05:54:15;97802.97;;;10.01;62.74
77431;BME280;66498;48.564;19.272;2023-05-10T05:56:41;97812.88;;;9.99;61.54
77431;BME280;66498;48.564;19.272;2023-05-10T05:59:06;97809.84;;;9.95;60.36
77431;BME280;66498;48.564;19.272;2023-05-10T06:01:32;97804.72;;;10.13;59.93
77431;BME280;66498;48.564;19.272;2023-05-10T06:03:57;97807.84;;;9.97;61.27
77431;BME280;66498;48.564;19.272;2023-05-10T06:06:23;97800.72;;;10.04;59.63
77431;BME280;66498;48.564;19.272;2023-05-10T06:08:48;97807.34;;;10.13;62.41
77431;BME280;66498;48.564;19.272;2023-05-10T06:11:15;97801.25;;;10.51;61.17
77431;BME280;66498;48.564;19.272;2023-05-10T06:13:40;97803.78;;;10.64;61.78
77431;BME280;66498;48.564;19.272;2023-05-10T06:16:07;97802.06;;;10.77;60.31
77431;BME280;66498;48.564;19.272;2023-05-10T06:18:33;97796.31;;;10.61;58.22
77431;BME280;66498;48.564;19.272;2023-05-10T06:20:58;97796.28;;;10.68;58.70
77431;BME280;66498;48.564;19.272;2023-05-10T06:23:24;97803.59;;;11.28;58.07
77431;BME280;66498;48.564;19.272;2023-05-10T06:25:51;97810.09;;;11.00;59.09
77431;BME280;66498;48.564;19.272;2023-05-10T06:28:16;97815.78;;;10.79;59.20
77431;BME280;66498;48.564;19.272;2023-05-10T06:30:42;97813.16;;;10.79;59.31
77431;BME280;66498;48.564;19.272;2023-05-10T06:33:07;97808.38;;;10.69;58.22
77431;BME280;66498;48.564;19.272;2023-05-10T06:35:33;97815.69;;;10.67;60.34
77431;BME280;66498;48.564;19.272;2023-05-10T06:37:59;97808.50;;;10.81;59.54
77431;BME280;66498;48.564;19.272;2023-05-10T06:40:25;97808.31;;;10.76;58.92
77431;BME280;66498;48.564;19.272;2023-05-10T06:42:50;97816.88;;;10.89;57.93
77431;BME280;66498;48.564;19.272;2023-05-10T06:45:16;97810.75;;;10.77;59.62
77431;BME280;66498;48.564;19.272;2023-05-10T06:47:42;97815.34;;;10.57;58.52
77431;BME280;66498;48.564;19.272;2023-05-10T06:50:09;97816.72;;;10.59;59.46
77431;BME280;66498;48.564;19.272;2023-05-10T06:52:36;97824.94;;;10.70;59.07
77431;BME280;66498;48.564;19.272;2023-05-10T06:55:03;97816.31;;;10.62;58.11
77431;BME280;66498;48.564;19.272;2023-05-10T06:57:29;97820.31;;;10.65;59.03
77431;BME280;66498;48.564;19.272;2023-05-10T06:59:54;97812.94;;;10.55;61.33
77431;BME280;66498;48.564;19.272;2023-05-10T07:02:21;97806.13;;;10.48;60.86
77431;BME280;66498;48.564;19.272;2023-05-10T07:04:48;97801.44;;;10.56;62.22
77431;BME280;66498;48.564;19.272;2023-05-10T07:07:14;97807.09;;;10.53;61.49
77431;BME280;66498;48.564;19.272;2023-05-10T07:09:40;97798.53;;;10.39;62.49
77431;BME280;66498;48.564;19.272;2023-05-10T07:12:05;97809.13;;;10.26;61.82
77431;BME280;66498;48.564;19.272;2023-05-10T07:14:31;97820.00;;;10.30;63.20
77431;BME280;66498;48.564;19.272;2023-05-10T07:16:58;97811.69;;;10.33;62.47
77431;BME280;66498;48.564;19.272;2023-05-10T07:19:23;97819.78;;;10.25;61.66
77431;BME280;66498;48.564;19.272;2023-05-10T07:21:49;97816.94;;;10.33;62.28
77431;BME280;66498;48.564;19.272;2023-05-10T07:24:16;97817.22;;;10.50;60.70
77431;BME280;66498;48.564;19.272;2023-05-10T07:26:41;97815.97;;;10.27;61.13
77431;BME280;66498;48.564;19.272;2023-05-10T07:29:07;97806.81;;;10.36;62.78
77431;BME280;66498;48.564;19.272;2023-05-10T07:31:32;97812.28;;;10.35;60.32
77431;BME280;66498;48.564;19.272;2023-05-10T07:33:58;97819.41;;;10.53;61.49
77431;BME280;66498;48.564;19.272;2023-05-10T07:36:24;97815.66;;;10.42;60.29
77431;BME280;66498;48.564;19.272;2023-05-10T07:38:49;97811.81;;;10.45;60.87
77431;BME280;66498;48.564;19.272;2023-05-10T07:41:15;97814.75;;;10.55;61.93
77431;BME280;66498;48.564;19.272;2023-05-10T07:43:40;97813.53;;;10.57;61.34
77431;BME280;66498;48.564;19.272;2023-05-10T07:46:06;97817.50;;;10.67;62.44
77431;BME280;66498;48.564;19.272;2023-05-10T07:48:31;97809.72;;;10.78;62.17
77431;BME280;66498;48.564;19.272;2023-05-10T07:50:57;97811.84;;;10.88;60.51
77431;BME280;66498;48.564;19.272;2023-05-10T07:53:22;97811.78;;;10.95;58.98
77431;BME280;66498;48.564;19.272;2023-05-10T07:55:51;97809.91;;;11.02;59.35
77431;BME280;66498;48.564;19.272;2023-05-10T07:58:19;97820.47;;;10.95;60.02
77431;BME280;66498;48.564;19.272;2023-05-10T08:00:45;97810.72;;;11.21;61.29
77431;BME280;66498;48.564;19.272;2023-05-10T08:03:10;97809.63;;;11.47;61.82
77431;BME280;66498;48.564;19.272;2023-05-10T08:05:36;97811.56;;;11.88;57.59
77431;BME280;66498;48.564;19.272;2023-05-10T08:08:01;97808.28;;;12.23;58.13
77431;BME280;66498;48.564;19.272;2023-05-10T08:10:27;97807.31;;;12.47;56.94
77431;BME280;66498;48.564;19.272;2023-05-10T08:12:52;97805.22;;;12.49;56.82
77431;BME280;66498;48.564;19.272;2023-05-10T08:15:18;97818.09;;;12.58;58.19
77431;BME280;66498;48.564;19.272;2023-05-10T08:17:43;97812.13;;;12.50;56.78
77431;BME280;66498;48.564;19.272;2023-05-10T08:20:09;97810.53;;;12.73;57.43
77431;BME280;66498;48.564;19.272;2023-05-10T08:22:34;97809.97;;;12.83;55.83
77431;BME280;66498;48.564;19.272;2023-05-10T08:25:00;97814.19;;;13.07;57.31
77431;BME280;66498;48.564;19.272;2023-05-10T08:27:25;97812.38;;;13.19;57.44
77431;BME280;66498;48.564;19.272;2023-05-10T08:29:51;97813.41;;;13.30;58.13
77431;BME280;66498;48.564;19.272;2023-05-10T08:32:17;97810.44;;;13.03;57.12
77431;BME280;66498;48.564;19.272;2023-05-10T08:34:42;97820.81;;;12.63;56.61
77431;BME280;66498;48.564;19.272;2023-05-10T08:37:08;97811.56;;;12.60;57.31
77431;BME280;66498;48.564;19.272;2023-05-10T08:39:37;97826.00;;;12.69;58.62
77431;BME280;66498;48.564;19.272;2023-05-10T08:42:04;97824.16;;;12.58;57.14
77431;BME280;66498;48.564;19.272;2023-05-10T08:44:35;97822.56;;;12.57;58.34
77431;BME280;66498;48.564;19.272;2023-05-10T08:47:05;97820.22;;;12.49;58.49
77431;BME280;66498;48.564;19.272;2023-05-10T08:49:34;97819.81;;;12.22;57.74
77431;BME280;66498;48.564;19.272;2023-05-10T08:52:02;97820.97;;;12.26;58.12
77431;BME280;66498;48.564;19.272;2023-05-10T08:54:29;97816.44;;;12.33;58.82
77431;BME280;66498;48.564;19.272;2023-05-10T08:56:56;97815.88;;;12.43;58.22
77431;BME280;66498;48.564;19.272;2023-05-10T08:59:22;97811.38;;;12.31;58.20
77431;BME280;66498;48.564;19.272;2023-05-10T09:01:49;97810.00;;;12.29;58.12
77431;BME280;66498;48.564;19.272;2023-05-10T09:04:15;97817.44;;;12.32;58.87
77431;BME280;66498;48.564;19.272;2023-05-10T09:06:41;97813.91;;;12.26;59.27
77431;BME280;66498;48.564;19.272;2023-05-10T09:09:07;97818.56;;;12.24;59.80
77431;BME280;66498;48.564;19.272;2023-05-10T09:11:32;97814.91;;;12.25;60.84
77431;BME280;66498;48.564;19.272;2023-05-10T09:13:58;97810.88;;;12.11;61.52
77431;BME280;66498;48.564;19.272;2023-05-10T09:16:23;97807.91;;;12.19;63.72
77431;BME280;66498;48.564;19.272;2023-05-10T09:18:49;97812.88;;;12.39;59.36
77431;BME280;66498;48.564;19.272;2023-05-10T09:21:15;97812.03;;;12.57;59.57
77431;BME280;66498;48.564;19.272;2023-05-10T09:23:45;97806.31;;;12.60;58.27
77431;BME280;66498;48.564;19.272;2023-05-10T09:26:12;97812.03;;;12.81;58.51
77431;BME280;66498;48.564;19.272;2023-05-10T09:28:54;97809.06;;;12.89;59.49
77431;BME280;66498;48.564;19.272;2023-05-10T09:31:21;97810.78;;;12.95;61.95
77431;BME280;66498;48.564;19.272;2023-05-10T09:33:48;97807.44;;;13.23;60.45
77431;BME280;66498;48.564;19.272;2023-05-10T09:36:14;97812.94;;;13.10;59.03
77431;BME280;66498;48.564;19.272;2023-05-10T09:38:47;97803.88;;;13.17;56.32
77431;BME280;66498;48.564;19.272;2023-05-10T09:41:21;97807.00;;;13.26;56.47
77431;BME280;66498;48.564;19.272;2023-05-10T09:43:47;97802.69;;;13.60;55.06
77431;BME280;66498;48.564;19.272;2023-05-10T09:46:13;97788.84;;;14.10;54.17
77431;BME280;66498;48.564;19.272;2023-05-10T09:48:45;97793.28;;;14.38;54.36
77431;BME280;66498;48.564;19.272;2023-05-10T09:51:24;97790.91;;;14.71;51.07
77431;BME280;66498;48.564;19.272;2023-05-10T09:54:15;97781.22;;;14.59;53.32
77431;BME280;66498;48.564;19.272;2023-05-10T09:56:41;97779.28;;;14.88;52.01
77431;BME280;66498;48.564;19.272;2023-05-10T09:59:10;97776.06;;;14.86;54.80
77431;BME280;66498;48.564;19.272;2023-05-10T10:01:37;97766.38;;;14.92;51.92
77431;BME280;66498;48.564;19.272;2023-05-10T10:04:10;97773.84;;;14.95;52.94
77431;BME280;66498;48.564;19.272;2023-05-10T10:06:39;97766.22;;;14.99;51.34
77431;BME280;66498;48.564;19.272;2023-05-10T10:09:09;97755.69;;;15.04;51.72
77431;BME280;66498;48.564;19.272;2023-05-10T10:11:38;97761.38;;;15.12;52.33
77431;BME280;66498;48.564;19.272;2023-05-10T10:14:05;97759.31;;;14.98;50.14
77431;BME280;66498;48.564;19.272;2023-05-10T10:16:31;97762.25;;;15.40;50.41
77431;BME280;66498;48.564;19.272;2023-05-10T10:18:57;97761.91;;;15.58;52.26
77431;BME280;66498;48.564;19.272;2023-05-10T10:21:23;97757.56;;;15.47;49.73
77431;BME280;66498;48.564;19.272;2023-05-10T10:23:50;97758.00;;;16.10;51.49
77431;BME280;66498;48.564;19.272;2023-05-10T10:26:17;97759.41;;;16.23;50.88
77431;BME280;66498;48.564;19.272;2023-05-10T10:31:41;97750.88;;;16.48;46.77
77431;BME280;66498;48.564;19.272;2023-05-10T10:34:11;97750.19;;;17.00;47.44
77431;BME280;66498;48.564;19.272;2023-05-10T10:36:45;97747.50;;;16.58;49.06
77431;BME280;66498;48.564;19.272;2023-05-10T10:39:11;97747.25;;;17.01;49.67
77431;BME280;66498;48.564;19.272;2023-05-10T10:41:49;97746.19;;;16.97;46.32
77431;BME280;66498;48.564;19.272;2023-05-10T10:47:03;97743.88;;;16.74;49.20
77431;BME280;66498;48.564;19.272;2023-05-10T10:49:42;97731.78;;;16.46;48.22
77431;BME280;66498;48.564;19.272;2023-05-10T10:57:20;97734.75;;;17.49;44.85
77431;BME280;66498;48.564;19.272;2023-05-10T10:59:48;97738.53;;;17.74;48.64
77431;BME280;66498;48.564;19.272;2023-05-10T11:07:54;97735.22;;;17.36;47.48
77431;BME280;66498;48.564;19.272;2023-05-10T11:10:21;97724.28;;;17.17;46.49
77431;BME280;66498;48.564;19.272;2023-05-10T11:13:02;97723.66;;;17.73;46.45
77431;BME280;66498;48.564;19.272;2023-05-10T11:15:36;97718.91;;;17.85;45.61
77431;BME280;66498;48.564;19.272;2023-05-10T11:18:24;97715.44;;;17.80;46.36
77431;BME280;66498;48.564;19.272;2023-05-10T11:20:51;97719.16;;;17.79;48.17
77431;BME280;66498;48.564;19.272;2023-05-10T11:23:17;97712.00;;;17.79;48.01
77431;BME280;66498;48.564;19.272;2023-05-10T11:25:43;97711.94;;;17.69;45.29
77431;BME280;66498;48.564;19.272;2023-05-10T11:28:10;97703.75;;;17.70;44.78
77431;BME280;66498;48.564;19.272;2023-05-10T11:30:38;97702.19;;;18.72;44.30
77431;BME280;66498;48.564;19.272;2023-05-10T11:33:05;97713.91;;;18.09;45.18
77431;BME280;66498;48.564;19.272;2023-05-10T11:35:37;97713.78;;;17.58;43.52
77431;BME280;66498;48.564;19.272;2023-05-10T11:38:05;97712.31;;;17.15;44.24
77431;BME280;66498;48.564;19.272;2023-05-10T11:40:31;97700.56;;;17.73;45.80
77431;BME280;66498;48.564;19.272;2023-05-10T11:42:56;97695.28;;;17.89;45.16
77431;BME280;66498;48.564;19.272;2023-05-10T11:45:24;97688.63;;;18.37;43.93
77431;BME280;66498;48.564;19.272;2023-05-10T11:47:49;97687.50;;;18.89;45.46
77431;BME280;66498;48.564;19.272;2023-05-10T11:50:15;97692.97;;;19.19;44.36
77431;BME280;66498;48.564;19.272;2023-05-10T11:52:41;97690.59;;;19.17;41.37
77431;BME280;66498;48.564;19.272;2023-05-10T11:55:06;97687.88;;;19.27;42.52
77431;BME280;66498;48.564;19.272;2023-05-10T11:57:32;97679.75;;;19.58;39.68
77431;BME280;66498;48.564;19.272;2023-05-10T11:59:59;97684.69;;;19.30;41.58
77431;BME280;66498;48.564;19.272;2023-05-10T12:02:25;97681.66;;;19.47;40.95
77431;BME280;66498;48.564;19.272;2023-05-10T12:04:51;97685.88;;;19.64;42.43
77431;BME280;66498;48.564;19.272;2023-05-10T12:07:17;97682.72;;;19.51;41.61
77431;BME280;66498;48.564;19.272;2023-05-10T12:09:43;97671.25;;;19.95;44.08
77431;BME280;66498;48.564;19.272;2023-05-10T12:12:10;97678.25;;;20.20;42.10
77431;BME280;66498;48.564;19.272;2023-05-10T12:14:41;97681.75;;;19.32;42.52
77431;BME280;66498;48.564;19.272;2023-05-10T12:17:11;97675.00;;;18.90;43.16
77431;BME280;66498;48.564;19.272;2023-05-10T12:19:38;97682.28;;;19.34;38.83
77431;BME280;66498;48.564;19.272;2023-05-10T12:22:06;97682.00;;;18.55;39.12
77431;BME280;66498;48.564;19.272;2023-05-10T12:24:36;97691.81;;;17.78;40.12
77431;BME280;66498;48.564;19.272;2023-05-10T12:27:08;97683.53;;;17.64;40.43
77431;BME280;66498;48.564;19.272;2023-05-10T12:29:34;97681.78;;;17.07;42.34
77431;BME280;66498;48.564;19.272;2023-05-10T12:32:00;97683.38;;;17.08;40.93
77431;BME280;66498;48.564;19.272;2023-05-10T12:34:32;97679.59;;;18.49;41.47
77431;BME280;66498;48.564;19.272;2023-05-10T12:36:59;97674.00;;;18.65;39.54
77431;BME280;66498;48.564;19.272;2023-05-10T12:39:25;97670.97;;;18.98;40.86
77431;BME280;66498;48.564;19.272;2023-05-10T12:41:52;97670.59;;;18.09;42.88
77431;BME280;66498;48.564;19.272;2023-05-10T12:44:18;97666.34;;;17.82;41.41
77431;BME280;66498;48.564;19.272;2023-05-10T12:46:43;97674.53;;;17.60;42.37
77431;BME280;66498;48.564;19.272;2023-05-10T12:49:09;97676.53;;;16.65;43.29
77431;BME280;66498;48.564;19.272;2023-05-10T12:51:35;97669.47;;;16.38;43.63
77431;BME280;66498;48.564;19.272;2023-05-10T12:54:02;97666.59;;;16.45;45.39
77431;BME280;66498;48.564;19.272;2023-05-10T12:56:28;97662.13;;;16.50;44.70
77431;BME280;66498;48.564;19.272;2023-05-10T12:58:53;97664.72;;;16.83;45.01
77431;BME280;66498;48.564;19.272;2023-05-10T13:01:19;97666.69;;;16.60;45.06
77431;BME280;66498;48.564;19.272;2023-05-10T13:03:44;97666.72;;;16.65;45.19
77431;BME280;66498;48.564;19.272;2023-05-10T13:06:10;97663.41;;;16.90;45.60
77431;BME280;66498;48.564;19.272;2023-05-10T13:08:36;97656.31;;;16.16;45.66
77431;BME280;66498;48.564;19.272;2023-05-10T13:11:02;97655.09;;;16.29;45.10
77431;BME280;66498;48.564;19.272;2023-05-10T13:13:27;97660.22;;;16.41;45.19
77431;BME280;66498;48.564;19.272;2023-05-10T13:15:53;97655.88;;;16.72;45.30
77431;BME280;66498;48.564;19.272;2023-05-10T13:18:19;97649.56;;;16.30;44.01
77431;BME280;66498;48.564;19.272;2023-05-10T13:20:44;97646.41;;;16.39;44.39
77431;BME280;66498;48.564;19.272;2023-05-10T13:23:10;97641.31;;;16.74;43.74